sensor_id;sensor_type;location;lat;lon;timestamp;P1;P2;P0
49343;PMS5003;35210;41.606;-87.602;2023-04-01T00:02:03;18.40;18.40;13.20
49343;PMS5003;35210;41.606;-87.602;2023-04-01T00:04:31;20.60;18.20;12.60
49343;PMS5003;35210;41.606;-87.602;2023-04-01T00:06:59;18.00;17.80;13.00
49343;PMS5003;35210;41.606;-87.602;2023-04-01T00:09:27;23.60;19.40;12.80
49343;PMS5003;35210;41.606;-87.602;2023-04-01T00:11:55;22.60;19.60;13.20
49343;PMS5003;35210;41.606;-87.602;2023-04-01T00:14:26;20.60;17.40;11.60
49343;PMS5003;35210;41.606;-87.602;2023-04-01T00:16:55;18.00;16.80;14.00
49343;PMS5003;35210;41.606;-87.602;2023-04-01T00:19:23;17.80;16.40;10.20
49343;PMS5003;35210;41.606;-87.602;2023-04-01T00:21:51;19.60;19.00;12.00
49343;PMS5003;35210;41.606;-87.602;2023-04-01T00:24:19;21.00;18.60;10.40
49343;PMS5003;35210;41.606;-87.602;2023-04-01T00:26:47;19.20;16.80;11.20
49343;PMS5003;35210;41.606;-87.602;2023-04-01T00:29:15;18.20;18.20;12.80
49343;PMS5003;35210;41.606;-87.602;2023-04-01T00:31:45;21.20;18.80;13.40
49343;PMS5003;35210;41.606;-87.602;2023-04-01T00:34:14;10.00;10.00;6.40
49343;PMS5003;35210;41.606;-87.602;2023-04-01T00:36:42;15.20;13.40;9.00
49343;PMS5003;35210;41.606;-87.602;2023-04-01T00:39:10;23.60;23.60;15.60
49343;PMS5003;35210;41.606;-87.602;2023-04-01T00:41:38;32.40;29.00;17.80
49343;PMS5003;35210;41.606;-87.602;2023-04-01T00:44:14;25.20;23.20;16.20
49343;PMS5003;35210;41.606;-87.602;2023-04-01T00:46:46;20.20;19.60;14.80
49343;PMS5003;35210;41.606;-87.602;2023-04-01T00:49:15;19.00;17.00;12.00
49343;PMS5003;35210;41.606;-87.602;2023-04-01T00:51:46;17.40;16.80;11.40
49343;PMS5003;35210;41.606;-87.602;2023-04-01T00:54:17;20.20;19.20;11.00
49343;PMS5003;35210;41.606;-87.602;2023-04-01T00:56:48;19.20;18.00;11.60
49343;PMS5003;35210;41.606;-87.602;2023-04-01T00:59:22;8.20;8.00;6.00
49343;PMS5003;35210;41.606;-87.602;2023-04-01T01:01:54;5.00;4.60;2.40
49343;PMS5003;35210;41.606;-87.602;2023-04-01T01:04:23;5.00;3.20;2.00
49343;PMS5003;35210;41.606;-87.602;2023-04-01T01:06:55;2.20;2.00;0.40
49343;PMS5003;35210;41.606;-87.602;2023-04-01T01:09:33;0.20;0.20;0.00
49343;PMS5003;35210;41.606;-87.602;2023-04-01T01:12:12;1.40;1.40;0.00
49343;PMS5003;35210;41.606;-87.602;2023-04-01T01:14:46;1.20;1.20;1.00
49343;PMS5003;35210;41.606;-87.602;2023-04-01T01:17:25;1.00;1.00;0.20
49343;PMS5003;35210;41.606;-87.602;2023-04-01T01:20:16;0.00;0.00;0.00
49343;PMS5003;35210;41.606;-87.602;2023-04-01T01:26:19;0.00;0.00;0.00
49343;PMS5003;35210;41.606;-87.602;2023-04-01T01:29:03;1.80;1.40;1.00
49343;PMS5003;35210;41.606;-87.602;2023-04-01T01:31:44;1.80;0.80;0.00
49343;PMS5003;35210;41.606;-87.602;2023-04-01T01:34:19;4.60;3.00;2.00
49343;PMS5003;35210;41.606;-87.602;2023-04-01T01:36:59;2.80;2.80;2.00
49343;PMS5003;35210;41.606;-87.602;2023-04-01T01:39:32;5.80;2.00;1.00
49343;PMS5003;35210;41.606;-87.602;2023-04-01T01:42:04;3.80;3.00;2.00
49343;PMS5003;35210;41.606;-87.602;2023-04-01T01:44:35;3.80;3.20;1.40
49343;PMS5003;35210;41.606;-87.602;2023-04-01T01:47:06;5.40;4.40;2.20
49343;PMS5003;35210;41.606;-87.602;2023-04-01T01:49:36;4.00;4.00;2.00
49343;PMS5003;35210;41.606;-87.602;2023-04-01T01:52:08;3.20;3.20;2.00
49343;PMS5003;35210;41.606;-87.602;2023-04-01T01:54:46;3.40;3.40;2.00
49343;PMS5003;35210;41.606;-87.602;2023-04-01T01:57:15;3.60;3.60;1.80
49343;PMS5003;35210;41.606;-87.602;2023-04-01T01:59:44;6.60;5.20;3.00
49343;PMS5003;35210;41.606;-87.602;2023-04-01T02:02:15;4.00;4.00;2.00
49343;PMS5003;35210;41.606;-87.602;2023-04-01T02:04:45;5.40;3.80;2.40
49343;PMS5003;35210;41.606;-87.602;2023-04-01T02:07:16;3.00;3.00;1.00
49343;PMS5003;35210;41.606;-87.602;2023-04-01T02:09:47;6.20;3.40;2.20
49343;PMS5003;35210;41.606;-87.602;2023-04-01T02:12:17;5.20;3.60;1.00
49343;PMS5003;35210;41.606;-87.602;2023-04-01T02:14:49;6.00;3.80;2.00
49343;PMS5003;35210;41.606;-87.602;2023-04-01T02:17:23;4.00;2.40;1.80
49343;PMS5003;35210;41.606;-87.602;2023-04-01T02:19:54;7.60;3.80;2.00
49343;PMS5003;35210;41.606;-87.602;2023-04-01T02:22:27;5.80;4.00;2.00
49343;PMS5003;35210;41.606;-87.602;2023-04-01T02:25:00;6.60;5.00;2.60
49343;PMS5003;35210;41.606;-87.602;2023-04-01T02:27:33;2.20;2.20;1.00
49343;PMS5003;35210;41.606;-87.602;2023-04-01T02:30:02;3.00;3.00;2.00
49343;PMS5003;35210;41.606;-87.602;2023-04-01T02:32:31;4.80;3.20;1.00
49343;PMS5003;35210;41.606;-87.602;2023-04-01T02:35:03;4.40;3.00;2.00
49343;PMS5003;35210;41.606;-87.602;2023-04-01T02:37:35;2.40;2.40;1.60
49343;PMS5003;35210;41.606;-87.602;2023-04-01T02:40:03;2.20;2.20;1.00
49343;PMS5003;35210;41.606;-87.602;2023-04-01T02:42:33;3.60;2.40;1.00
49343;PMS5003;35210;41.606;-87.602;2023-04-01T02:45:04;4.00;4.00;2.00
49343;PMS5003;35210;41.606;-87.602;2023-04-01T02:47:33;6.60;3.00;2.00
49343;PMS5003;35210;41.606;-87.602;2023-04-01T02:50:03;4.00;3.40;2.00
49343;PMS5003;35210;41.606;-87.602;2023-04-01T02:52:32;5.80;5.00;3.20
49343;PMS5003;35210;41.606;-87.602;2023-04-01T02:55:02;4.80;4.80;2.00
49343;PMS5003;35210;41.606;-87.602;2023-04-01T02:57:31;4.20;3.80;2.00
49343;PMS5003;35210;41.606;-87.602;2023-04-01T03:00:00;6.40;4.60;2.00
49343;PMS5003;35210;41.606;-87.602;2023-04-01T03:02:29;6.00;5.00;3.00
49343;PMS5003;35210;41.606;-87.602;2023-04-01T03:04:58;4.40;4.40;3.00
49343;PMS5003;35210;41.606;-87.602;2023-04-01T03:07:26;5.00;5.00;2.80
49343;PMS5003;35210;41.606;-87.602;2023-04-01T03:09:55;6.60;4.00;3.00
49343;PMS5003;35210;41.606;-87.602;2023-04-01T03:12:25;6.00;5.00;3.20
49343;PMS5003;35210;41.606;-87.602;2023-04-01T03:14:53;7.80;6.00;4.00
49343;PMS5003;35210;41.606;-87.602;2023-04-01T03:17:21;5.40;4.00;2.00
49343;PMS5003;35210;41.606;-87.602;2023-04-01T03:19:49;5.20;5.20;3.20
49343;PMS5003;35210;41.606;-87.602;2023-04-01T03:22:17;5.00;5.00;3.60
49343;PMS5003;35210;41.606;-87.602;2023-04-01T03:24:46;5.40;5.00;3.00
49343;PMS5003;35210;41.606;-87.602;2023-04-01T03:27:15;6.20;5.00;3.80
49343;PMS5003;35210;41.606;-87.602;2023-04-01T03:29:44;6.60;3.00;2.40
49343;PMS5003;35210;41.606;-87.602;2023-04-01T03:32:12;5.20;5.20;3.00
49343;PMS5003;35210;41.606;-87.602;2023-04-01T03:34:40;8.00;5.20;3.20
49343;PMS5003;35210;41.606;-87.602;2023-04-01T03:37:09;7.60;6.20;2.80
49343;PMS5003;35210;41.606;-87.602;2023-04-01T03:39:38;5.40;5.40;3.00
49343;PMS5003;35210;41.606;-87.602;2023-04-01T03:42:06;8.80;7.60;4.40
49343;PMS5003;35210;41.606;-87.602;2023-04-01T03:44:34;7.60;6.20;3.80
49343;PMS5003;35210;41.606;-87.602;2023-04-01T03:47:04;6.60;4.60;2.00
49343;PMS5003;35210;41.606;-87.602;2023-04-01T03:49:34;6.40;6.40;4.60
49343;PMS5003;35210;41.606;-87.602;2023-04-01T03:52:03;7.60;4.60;3.00
49343;PMS5003;35210;41.606;-87.602;2023-04-01T03:54:31;5.80;5.80;3.00
49343;PMS5003;35210;41.606;-87.602;2023-04-01T03:56:59;5.60;5.60;2.60
49343;PMS5003;35210;41.606;-87.602;2023-04-01T03:59:27;8.00;5.80;2.60
49343;PMS5003;35210;41.606;-87.602;2023-04-01T04:01:55;8.60;5.40;4.00
49343;PMS5003;35210;41.606;-87.602;2023-04-01T04:04:26;7.40;6.00;4.00
49343;PMS5003;35210;41.606;-87.602;2023-04-01T04:06:54;8.00;6.20;4.00
49343;PMS5003;35210;41.606;-87.602;2023-04-01T04:09:23;5.00;5.00;3.80
49343;PMS5003;35210;41.606;-87.602;2023-04-01T04:11:51;8.00;6.00;4.00
49343;PMS5003;35210;41.606;-87.602;2023-04-01T04:14:19;5.40;4.60;3.00
49343;PMS5003;35210;41.606;-87.602;2023-04-01T04:16:47;7.00;6.40;4.00
49343;PMS5003;35210;41.606;-87.602;2023-04-01T04:19:15;6.60;5.60;3.40
49343;PMS5003;35210;41.606;-87.602;2023-04-01T04:21:45;5.40;5.20;3.60
49343;PMS5003;35210;41.606;-87.602;2023-04-01T04:24:13;7.00;6.20;4.40
49343;PMS5003;35210;41.606;-87.602;2023-04-01T04:26:41;6.80;5.60;3.40
49343;PMS5003;35210;41.606;-87.602;2023-04-01T04:29:10;6.20;5.80;4.00
49343;PMS5003;35210;41.606;-87.602;2023-04-01T04:31:38;6.80;5.80;4.00
49343;PMS5003;35210;41.606;-87.602;2023-04-01T04:34:06;3.40;3.40;3.00
49343;PMS5003;35210;41.606;-87.602;2023-04-01T04:36:34;7.20;5.80;4.00
49343;PMS5003;35210;41.606;-87.602;2023-04-01T04:39:04;8.40;5.80;3.60
49343;PMS5003;35210;41.606;-87.602;2023-04-01T04:41:32;7.60;4.80;3.00
49343;PMS5003;35210;41.606;-87.602;2023-04-01T04:44:00;5.40;5.40;2.40
49343;PMS5003;35210;41.606;-87.602;2023-04-01T04:46:28;3.80;3.80;2.00
49343;PMS5003;35210;41.606;-87.602;2023-04-01T04:48:57;5.00;5.00;3.00
49343;PMS5003;35210;41.606;-87.602;2023-04-01T04:51:25;6.60;5.00;3.00
49343;PMS5003;35210;41.606;-87.602;2023-04-01T04:53:53;5.20;5.00;3.00
49343;PMS5003;35210;41.606;-87.602;2023-04-01T04:56:22;5.60;5.60;3.00
49343;PMS5003;35210;41.606;-87.602;2023-04-01T04:58:51;4.80;3.80;2.20
49343;PMS5003;35210;41.606;-87.602;2023-04-01T05:01:19;5.80;5.00;3.20
49343;PMS5003;35210;41.606;-87.602;2023-04-01T05:03:49;8.40;6.20;4.00
49343;PMS5003;35210;41.606;-87.602;2023-04-01T05:06:18;6.60;5.00;2.00
49343;PMS5003;35210;41.606;-87.602;2023-04-01T05:08:46;7.00;6.80;3.60
49343;PMS5003;35210;41.606;-87.602;2023-04-01T05:11:16;5.40;4.60;3.00
49343;PMS5003;35210;41.606;-87.602;2023-04-01T05:13:48;7.20;7.20;4.80
49343;PMS5003;35210;41.606;-87.602;2023-04-01T05:16:17;7.80;5.80;3.80
49343;PMS5003;35210;41.606;-87.602;2023-04-01T05:18:47;3.40;2.60;2.60
49343;PMS5003;35210;41.606;-87.602;2023-04-01T05:21:15;8.00;8.00;5.00
49343;PMS5003;35210;41.606;-87.602;2023-04-01T05:23:45;7.00;7.00;4.80
49343;PMS5003;35210;41.606;-87.602;2023-04-01T05:26:13;7.40;7.40;5.80
49343;PMS5003;35210;41.606;-87.602;2023-04-01T05:28:42;8.00;7.40;4.00
49343;PMS5003;35210;41.606;-87.602;2023-04-01T05:31:12;7.20;7.20;5.00
49343;PMS5003;35210;41.606;-87.602;2023-04-01T05:33:40;7.40;7.40;4.80
49343;PMS5003;35210;41.606;-87.602;2023-04-01T05:36:09;9.40;8.60;5.00
49343;PMS5003;35210;41.606;-87.602;2023-04-01T05:38:38;8.20;7.00;4.00
49343;PMS5003;35210;41.606;-87.602;2023-04-01T05:41:07;6.00;6.00;5.00
49343;PMS5003;35210;41.606;-87.602;2023-04-01T05:43:36;10.80;7.80;5.00
49343;PMS5003;35210;41.606;-87.602;2023-04-01T05:46:05;9.80;8.80;5.00
49343;PMS5003;35210;41.606;-87.602;2023-04-01T05:48:34;8.20;8.20;5.80
49343;PMS5003;35210;41.606;-87.602;2023-04-01T05:51:03;6.60;6.20;3.40
49343;PMS5003;35210;41.606;-87.602;2023-04-01T05:53:31;11.20;9.40;7.00
49343;PMS5003;35210;41.606;-87.602;2023-04-01T05:56:02;14.60;11.40;7.20
49343;PMS5003;35210;41.606;-87.602;2023-04-01T05:58:31;11.00;10.00;6.60
49343;PMS5003;35210;41.606;-87.602;2023-04-01T06:01:02;11.20;9.60;6.40
49343;PMS5003;35210;41.606;-87.602;2023-04-01T06:03:33;12.60;11.00;6.40
49343;PMS5003;35210;41.606;-87.602;2023-04-01T06:06:02;8.60;8.00;4.00
49343;PMS5003;35210;41.606;-87.602;2023-04-01T06:08:30;11.20;9.40;7.00
49343;PMS5003;35210;41.606;-87.602;2023-04-01T06:11:03;12.20;8.40;5.80
49343;PMS5003;35210;41.606;-87.602;2023-04-01T06:13:49;13.00;9.20;6.00
49343;PMS5003;35210;41.606;-87.602;2023-04-01T06:16:32;9.00;9.00;6.20
49343;PMS5003;35210;41.606;-87.602;2023-04-01T06:19:17;12.60;11.00;6.20
49343;PMS5003;35210;41.606;-87.602;2023-04-01T06:25:21;13.40;10.20;6.20
49343;PMS5003;35210;41.606;-87.602;2023-04-01T06:28:05;13.80;12.80;6.80
49343;PMS5003;35210;41.606;-87.602;2023-04-01T06:30:50;9.80;9.60;6.00
49343;PMS5003;35210;41.606;-87.602;2023-04-01T06:36:37;8.80;8.20;4.60
49343;PMS5003;35210;41.606;-87.602;2023-04-01T06:39:20;11.00;9.20;6.00
49343;PMS5003;35210;41.606;-87.602;2023-04-01T06:41:57;14.40;13.00;6.80
49343;PMS5003;35210;41.606;-87.602;2023-04-01T06:44:49;11.20;9.40;5.80
49343;PMS5003;35210;41.606;-87.602;2023-04-01T06:47:34;12.20;11.20;6.40
49343;PMS5003;35210;41.606;-87.602;2023-04-01T06:50:16;12.00;9.00;6.80
49343;PMS5003;35210;41.606;-87.602;2023-04-01T06:52:55;10.40;9.40;6.80
49343;PMS5003;35210;41.606;-87.602;2023-04-01T06:55:30;9.60;9.60;6.60
49343;PMS5003;35210;41.606;-87.602;2023-04-01T06:58:06;12.40;10.60;6.00
49343;PMS5003;35210;41.606;-87.602;2023-04-01T07:00:46;11.40;11.40;7.20
49343;PMS5003;35210;41.606;-87.602;2023-04-01T07:03:19;13.20;12.00;7.00
49343;PMS5003;35210;41.606;-87.602;2023-04-01T07:05:50;12.60;12.00;7.00
49343;PMS5003;35210;41.606;-87.602;2023-04-01T07:08:23;12.80;8.00;5.00
49343;PMS5003;35210;41.606;-87.602;2023-04-01T07:10:55;12.20;12.20;7.60
49343;PMS5003;35210;41.606;-87.602;2023-04-01T07:13:31;12.00;11.00;7.40
49343;PMS5003;35210;41.606;-87.602;2023-04-01T07:16:06;14.60;13.00;7.00
49343;PMS5003;35210;41.606;-87.602;2023-04-01T07:18:41;14.60;13.20;7.60
49343;PMS5003;35210;41.606;-87.602;2023-04-01T07:21:20;12.20;10.80;6.20
49343;PMS5003;35210;41.606;-87.602;2023-04-01T07:23:56;10.20;9.40;7.00
49343;PMS5003;35210;41.606;-87.602;2023-04-01T07:26:31;13.40;13.40;7.20
49343;PMS5003;35210;41.606;-87.602;2023-04-01T07:28:59;15.40;14.00;9.20
49343;PMS5003;35210;41.606;-87.602;2023-04-01T07:31:34;10.20;10.20;4.40
49343;PMS5003;35210;41.606;-87.602;2023-04-01T07:34:16;14.20;13.00;8.20
49343;PMS5003;35210;41.606;-87.602;2023-04-01T07:36:52;14.40;13.40;7.80
49343;PMS5003;35210;41.606;-87.602;2023-04-01T07:39:33;14.00;13.80;9.20
49343;PMS5003;35210;41.606;-87.602;2023-04-01T07:42:10;12.20;12.20;7.00
49343;PMS5003;35210;41.606;-87.602;2023-04-01T07:44:45;19.40;14.80;8.20
49343;PMS5003;35210;41.606;-87.602;2023-04-01T07:47:30;15.00;13.40;7.60
49343;PMS5003;35210;41.606;-87.602;2023-04-01T07:50:11;11.00;11.00;7.00
49343;PMS5003;35210;41.606;-87.602;2023-04-01T07:52:47;13.60;12.60;8.60
49343;PMS5003;35210;41.606;-87.602;2023-04-01T07:55:36;12.80;12.60;6.80
49343;PMS5003;35210;41.606;-87.602;2023-04-01T07:58:14;12.80;11.40;5.40
49343;PMS5003;35210;41.606;-87.602;2023-04-01T08:00:51;13.40;13.20;8.80
49343;PMS5003;35210;41.606;-87.602;2023-04-01T08:03:29;12.60;12.20;8.80
49343;PMS5003;35210;41.606;-87.602;2023-04-01T08:06:06;12.60;11.20;6.80
49343;PMS5003;35210;41.606;-87.602;2023-04-01T08:08:43;13.60;13.60;8.00
49343;PMS5003;35210;41.606;-87.602;2023-04-01T08:11:28;12.60;12.60;8.00
49343;PMS5003;35210;41.606;-87.602;2023-04-01T08:14:11;16.80;15.20;10.00
49343;PMS5003;35210;41.606;-87.602;2023-04-01T08:16:49;15.00;15.00;10.00
49343;PMS5003;35210;41.606;-87.602;2023-04-01T08:19:29;14.00;14.00;9.80
49343;PMS5003;35210;41.606;-87.602;2023-04-01T08:22:11;10.40;10.40;7.00
49343;PMS5003;35210;41.606;-87.602;2023-04-01T08:24:47;14.00;11.20;7.40
49343;PMS5003;35210;41.606;-87.602;2023-04-01T08:27:20;19.20;15.80;9.60
49343;PMS5003;35210;41.606;-87.602;2023-04-01T08:29:52;13.40;12.20;9.00
49343;PMS5003;35210;41.606;-87.602;2023-04-01T08:32:28;18.20;17.20;10.00
49343;PMS5003;35210;41.606;-87.602;2023-04-01T08:35:07;18.20;15.80;10.20
49343;PMS5003;35210;41.606;-87.602;2023-04-01T08:37:42;15.00;14.20;9.60
49343;PMS5003;35210;41.606;-87.602;2023-04-01T08:40:18;14.40;12.80;7.20
49343;PMS5003;35210;41.606;-87.602;2023-04-01T08:43:07;19.00;16.20;9.60
49343;PMS5003;35210;41.606;-87.602;2023-04-01T08:45:49;12.20;12.00;8.00
49343;PMS5003;35210;41.606;-87.602;2023-04-01T08:48:41;17.80;14.40;9.00
49343;PMS5003;35210;41.606;-87.602;2023-04-01T08:51:43;14.20;13.20;9.00
49343;PMS5003;35210;41.606;-87.602;2023-04-01T08:57:39;15.80;14.60;8.00
49343;PMS5003;35210;41.606;-87.602;2023-04-01T09:00:27;15.40;12.80;7.60
49343;PMS5003;35210;41.606;-87.602;2023-04-01T09:03:04;17.40;15.80;9.60
49343;PMS5003;35210;41.606;-87.602;2023-04-01T09:09:02;11.60;11.60;8.00
49343;PMS5003;35210;41.606;-87.602;2023-04-01T09:12:00;13.40;11.40;6.20
49343;PMS5003;35210;41.606;-87.602;2023-04-01T09:15:17;16.60;15.40;10.00
49343;PMS5003;35210;41.606;-87.602;2023-04-01T09:21:16;18.60;17.00;11.00
49343;PMS5003;35210;41.606;-87.602;2023-04-01T09:23:59;14.60;14.20;9.40
49343;PMS5003;35210;41.606;-87.602;2023-04-01T09:26:55;15.20;15.20;10.00
49343;PMS5003;35210;41.606;-87.602;2023-04-01T09:29:42;13.80;12.60;9.20
49343;PMS5003;35210;41.606;-87.602;2023-04-01T09:32:40;16.60;15.60;9.60
49343;PMS5003;35210;41.606;-87.602;2023-04-01T09:35:22;21.40;17.80;10.20
49343;PMS5003;35210;41.606;-87.602;2023-04-01T09:37:58;15.60;14.20;9.00
49343;PMS5003;35210;41.606;-87.602;2023-04-01T09:40:41;16.20;14.20;10.00
49343;PMS5003;35210;41.606;-87.602;2023-04-01T09:46:10;16.20;13.80;8.20
49343;PMS5003;35210;41.606;-87.602;2023-04-01T09:52:16;22.20;19.20;13.00
49343;PMS5003;35210;41.606;-87.602;2023-04-01T09:54:58;15.40;15.00;11.00
49343;PMS5003;35210;41.606;-87.602;2023-04-01T09:58:01;16.80;15.60;9.60
49343;PMS5003;35210;41.606;-87.602;2023-04-01T10:01:04;17.20;16.40;9.80
49343;PMS5003;35210;41.606;-87.602;2023-04-01T10:10:25;18.80;17.40;12.60
49343;PMS5003;35210;41.606;-87.602;2023-04-01T10:25:38;21.00;21.00;11.80
49343;PMS5003;35210;41.606;-87.602;2023-04-01T10:28:36;19.20;18.20;11.80
49343;PMS5003;35210;41.606;-87.602;2023-04-01T10:31:33;17.40;13.00;8.60
49343;PMS5003;35210;41.606;-87.602;2023-04-01T10:37:36;18.20;17.20;11.20
49343;PMS5003;35210;41.606;-87.602;2023-04-01T10:40:32;20.20;17.20;11.00
49343;PMS5003;35210;41.606;-87.602;2023-04-01T10:46:31;22.20;22.00;14.40
49343;PMS5003;35210;41.606;-87.602;2023-04-01T10:49:33;24.00;22.00;13.80
49343;PMS5003;35210;41.606;-87.602;2023-04-01T10:52:29;22.80;22.80;15.00
49343;PMS5003;35210;41.606;-87.602;2023-04-01T10:58:33;19.60;18.40;13.00
49343;PMS5003;35210;41.606;-87.602;2023-04-01T11:01:22;22.20;19.60;13.00
49343;PMS5003;35210;41.606;-87.602;2023-04-01T11:04:29;20.00;18.40;12.00
49343;PMS5003;35210;41.606;-87.602;2023-04-01T11:10:28;21.40;17.80;11.00
49343;PMS5003;35210;41.606;-87.602;2023-04-01T11:13:33;15.00;15.00;10.20
49343;PMS5003;35210;41.606;-87.602;2023-04-01T11:16:25;14.60;14.40;9.20
49343;PMS5003;35210;41.606;-87.602;2023-04-01T11:19:35;19.20;13.20;8.60
49343;PMS5003;35210;41.606;-87.602;2023-04-01T11:22:37;15.80;15.80;9.20
49343;PMS5003;35210;41.606;-87.602;2023-04-01T11:25:23;14.20;13.60;8.40
49343;PMS5003;35210;41.606;-87.602;2023-04-01T11:28:11;15.20;14.00;8.00
49343;PMS5003;35210;41.606;-87.602;2023-04-01T11:31:11;13.40;13.40;9.20
49343;PMS5003;35210;41.606;-87.602;2023-04-01T11:33:53;10.40;10.20;6.20
49343;PMS5003;35210;41.606;-87.602;2023-04-01T11:36:33;17.00;15.20;9.80
49343;PMS5003;35210;41.606;-87.602;2023-04-01T11:39:17;15.40;14.80;9.00
49343;PMS5003;35210;41.606;-87.602;2023-04-01T11:41:55;20.40;16.80;11.00
49343;PMS5003;35210;41.606;-87.602;2023-04-01T11:44:33;17.40;13.00;8.60
49343;PMS5003;35210;41.606;-87.602;2023-04-01T11:47:12;20.20;18.00;12.40
49343;PMS5003;35210;41.606;-87.602;2023-04-01T11:49:59;22.00;19.40;11.00
49343;PMS5003;35210;41.606;-87.602;2023-04-01T11:55:57;16.00;15.20;9.40
49343;PMS5003;35210;41.606;-87.602;2023-04-01T12:01:32;12.80;12.80;6.40
49343;PMS5003;35210;41.606;-87.602;2023-04-01T12:07:25;9.20;9.20;5.40
49343;PMS5003;35210;41.606;-87.602;2023-04-01T12:10:12;16.20;15.40;9.00
49343;PMS5003;35210;41.606;-87.602;2023-04-01T12:12:49;18.00;15.60;10.60
49343;PMS5003;35210;41.606;-87.602;2023-04-01T12:15:28;15.40;14.20;10.00
49343;PMS5003;35210;41.606;-87.602;2023-04-01T12:18:12;13.60;13.60;9.00
49343;PMS5003;35210;41.606;-87.602;2023-04-01T12:20:49;13.20;13.00;8.00
49343;PMS5003;35210;41.606;-87.602;2023-04-01T12:23:32;18.40;17.80;12.00
49343;PMS5003;35210;41.606;-87.602;2023-04-01T12:26:22;20.00;18.60;12.00
49343;PMS5003;35210;41.606;-87.602;2023-04-01T12:29:13;15.60;15.00;8.80
49343;PMS5003;35210;41.606;-87.602;2023-04-01T12:31:58;17.20;16.60;10.80
49343;PMS5003;35210;41.606;-87.602;2023-04-01T12:34:45;17.40;16.20;12.00
49343;PMS5003;35210;41.606;-87.602;2023-04-01T12:37:30;18.40;16.00;10.40
49343;PMS5003;35210;41.606;-87.602;2023-04-01T12:40:17;18.60;17.40;13.00
49343;PMS5003;35210;41.606;-87.602;2023-04-01T12:43:03;21.40;21.00;13.20
49343;PMS5003;35210;41.606;-87.602;2023-04-01T12:45:50;19.00;16.60;11.60
49343;PMS5003;35210;41.606;-87.602;2023-04-01T12:48:50;20.60;20.60;12.00
49343;PMS5003;35210;41.606;-87.602;2023-04-01T12:52:02;24.60;23.00;14.00
49343;PMS5003;35210;41.606;-87.602;2023-04-01T12:57:54;20.40;17.80;13.00
49343;PMS5003;35210;41.606;-87.602;2023-04-01T13:00:54;22.80;21.00;12.80
49343;PMS5003;35210;41.606;-87.602;2023-04-01T13:03:41;20.80;20.80;13.60
49343;PMS5003;35210;41.606;-87.602;2023-04-01T13:09:34;26.20;21.80;15.40
49343;PMS5003;35210;41.606;-87.602;2023-04-01T13:12:24;19.60;15.40;8.80
49343;PMS5003;35210;41.606;-87.602;2023-04-01T13:15:12;20.00;18.80;11.60
49343;PMS5003;35210;41.606;-87.602;2023-04-01T13:18:02;11.00;11.00;7.00
49343;PMS5003;35210;41.606;-87.602;2023-04-01T13:20:43;16.60;15.40;10.20
49343;PMS5003;35210;41.606;-87.602;2023-04-01T13:23:30;14.40;10.20;8.20
49343;PMS5003;35210;41.606;-87.602;2023-04-01T13:28:57;16.40;15.60;10.00
49343;PMS5003;35210;41.606;-87.602;2023-04-01T13:31:38;19.40;15.20;9.80
49343;PMS5003;35210;41.606;-87.602;2023-04-01T13:34:17;13.80;11.00;6.20
49343;PMS5003;35210;41.606;-87.602;2023-04-01T13:36:58;11.80;10.60;6.80
49343;PMS5003;35210;41.606;-87.602;2023-04-01T13:39:41;14.00;14.00;6.60
49343;PMS5003;35210;41.606;-87.602;2023-04-01T13:42:26;6.00;6.00;2.40
49343;PMS5003;35210;41.606;-87.602;2023-04-01T13:45:01;2.00;2.00;2.00
49343;PMS5003;35210;41.606;-87.602;2023-04-01T13:47:44;6.00;6.00;3.00
49343;PMS5003;35210;41.606;-87.602;2023-04-01T13:50:38;3.00;3.00;1.00
49343;PMS5003;35210;41.606;-87.602;2023-04-01T13:53:36;5.40;2.80;2.00
49343;PMS5003;35210;41.606;-87.602;2023-04-01T13:56:33;5.00;4.60;2.80
49343;PMS5003;35210;41.606;-87.602;2023-04-01T13:59:21;5.00;5.00;2.20
49343;PMS5003;35210;41.606;-87.602;2023-04-01T14:02:10;5.00;5.00;2.00
49343;PMS5003;35210;41.606;-87.602;2023-04-01T14:04:59;7.80;4.80;2.00
49343;PMS5003;35210;41.606;-87.602;2023-04-01T14:07:47;3.40;2.40;2.00
49343;PMS5003;35210;41.606;-87.602;2023-04-01T14:10:24;6.80;6.00;2.80
49343;PMS5003;35210;41.606;-87.602;2023-04-01T14:13:04;5.80;3.80;1.80
49343;PMS5003;35210;41.606;-87.602;2023-04-01T14:15:50;7.60;5.80;2.40
49343;PMS5003;35210;41.606;-87.602;2023-04-01T14:18:32;3.40;3.00;2.00
49343;PMS5003;35210;41.606;-87.602;2023-04-01T14:21:14;3.80;3.80;1.00
49343;PMS5003;35210;41.606;-87.602;2023-04-01T14:23:57;3.00;1.80;1.00
49343;PMS5003;35210;41.606;-87.602;2023-04-01T14:29:54;5.40;2.20;1.20
49343;PMS5003;35210;41.606;-87.602;2023-04-01T14:32:45;2.00;2.00;1.00
49343;PMS5003;35210;41.606;-87.602;2023-04-01T14:35:25;5.40;3.00;1.00
49343;PMS5003;35210;41.606;-87.602;2023-04-01T14:38:06;5.00;2.00;1.00
49343;PMS5003;35210;41.606;-87.602;2023-04-01T14:40:54;3.00;3.00;1.80
49343;PMS5003;35210;41.606;-87.602;2023-04-01T14:43:34;4.00;3.80;2.00
49343;PMS5003;35210;41.606;-87.602;2023-04-01T14:46:22;4.60;4.60;2.00
49343;PMS5003;35210;41.606;-87.602;2023-04-01T14:49:17;5.00;5.00;2.00
49343;PMS5003;35210;41.606;-87.602;2023-04-01T14:51:52;3.00;3.00;2.00
49343;PMS5003;35210;41.606;-87.602;2023-04-01T14:54:30;4.60;3.00;2.00
49343;PMS5003;35210;41.606;-87.602;2023-04-01T14:57:05;5.40;3.40;2.00
49343;PMS5003;35210;41.606;-87.602;2023-04-01T14:59:39;3.60;3.60;2.20
49343;PMS5003;35210;41.606;-87.602;2023-04-01T15:05:18;4.00;2.40;1.60
49343;PMS5003;35210;41.606;-87.602;2023-04-01T15:08:12;2.00;2.00;1.00
49343;PMS5003;35210;41.606;-87.602;2023-04-01T15:10:49;3.40;2.40;1.00
49343;PMS5003;35210;41.606;-87.602;2023-04-01T15:16:31;4.00;3.00;2.60
49343;PMS5003;35210;41.606;-87.602;2023-04-01T15:19:10;2.20;2.20;1.60
49343;PMS5003;35210;41.606;-87.602;2023-04-01T15:21:57;3.00;3.00;2.00
49343;PMS5003;35210;41.606;-87.602;2023-04-01T15:24:58;3.00;3.00;2.20
49343;PMS5003;35210;41.606;-87.602;2023-04-01T15:27:50;5.00;5.00;2.00
49343;PMS5003;35210;41.606;-87.602;2023-04-01T15:30:35;5.00;5.00;2.00
49343;PMS5003;35210;41.606;-87.602;2023-04-01T15:33:29;6.60;3.80;2.00
49343;PMS5003;35210;41.606;-87.602;2023-04-01T15:36:10;7.60;6.80;3.00
49343;PMS5003;35210;41.606;-87.602;2023-04-01T15:38:58;4.60;4.60;2.00
49343;PMS5003;35210;41.606;-87.602;2023-04-01T15:41:40;3.40;3.40;2.00
49343;PMS5003;35210;41.606;-87.602;2023-04-01T15:53:15;6.40;5.20;3.40
49343;PMS5003;35210;41.606;-87.602;2023-04-01T15:56:09;2.00;2.00;2.00
49343;PMS5003;35210;41.606;-87.602;2023-04-01T15:58:50;7.00;4.80;2.00
49343;PMS5003;35210;41.606;-87.602;2023-04-01T16:01:32;6.80;5.20;3.00
49343;PMS5003;35210;41.606;-87.602;2023-04-01T16:04:11;2.80;2.80;1.80
49343;PMS5003;35210;41.606;-87.602;2023-04-01T16:06:58;3.80;2.60;2.00
49343;PMS5003;35210;41.606;-87.602;2023-04-01T16:12:44;5.00;5.00;1.00
49343;PMS5003;35210;41.606;-87.602;2023-04-01T16:15:27;7.20;5.60;2.40
49343;PMS5003;35210;41.606;-87.602;2023-04-01T16:18:09;4.80;4.00;2.00
49343;PMS5003;35210;41.606;-87.602;2023-04-01T16:21:00;3.80;3.00;1.60
49343;PMS5003;35210;41.606;-87.602;2023-04-01T16:23:35;3.60;3.60;2.00